sensor_id;sensor_type;location;lat;lon;timestamp;P1;durP1;ratioP1;P2;durP2;ratioP2
59998;SDS011;45859;51.378;6.736;2022-11-04T00:01:54;2.47;;;1.47;;
59998;SDS011;45859;51.378;6.736;2022-11-04T00:04:21;5.10;;;2.43;;
59998;SDS011;45859;51.378;6.736;2022-11-04T00:06:48;3.90;;;1.20;;
59998;SDS011;45859;51.378;6.736;2022-11-04T00:11:41;3.77;;;2.50;;
59998;SDS011;45859;51.378;6.736;2022-11-04T00:14:27;3.30;;;1.50;;
59998;SDS011;45859;51.378;6.736;2022-11-04T00:16:54;0.40;;;0.30;;
59998;SDS011;45859;51.378;6.736;2022-11-04T00:19:38;4.70;;;0.63;;
59998;SDS011;45859;51.378;6.736;2022-11-04T00:22:22;0.70;;;0.30;;
59998;SDS011;45859;51.378;6.736;2022-11-04T00:25:07;1.00;;;0.37;;
59998;SDS011;45859;51.378;6.736;2022-11-04T00:27:52;1.30;;;0.70;;
59998;SDS011;45859;51.378;6.736;2022-11-04T00:30:45;0.60;;;0.50;;
59998;SDS011;45859;51.378;6.736;2022-11-04T00:33:11;0.63;;;0.60;;
59998;SDS011;45859;51.378;6.736;2022-11-04T00:35:53;3.63;;;1.77;;
59998;SDS011;45859;51.378;6.736;2022-11-04T00:38:21;1.07;;;0.33;;
59998;SDS011;45859;51.378;6.736;2022-11-04T00:40:47;1.83;;;0.67;;
59998;SDS011;45859;51.378;6.736;2022-11-04T00:43:13;3.77;;;2.70;;
59998;SDS011;45859;51.378;6.736;2022-11-04T00:45:39;1.20;;;0.67;;
59998;SDS011;45859;51.378;6.736;2022-11-04T00:48:06;2.00;;;1.23;;
59998;SDS011;45859;51.378;6.736;2022-11-04T00:50:31;5.33;;;3.20;;
59998;SDS011;45859;51.378;6.736;2022-11-04T00:53:00;4.77;;;3.50;;
59998;SDS011;45859;51.378;6.736;2022-11-04T00:55:26;3.93;;;3.03;;
59998;SDS011;45859;51.378;6.736;2022-11-04T00:57:52;5.20;;;4.10;;
59998;SDS011;45859;51.378;6.736;2022-11-04T01:00:18;1.50;;;1.40;;
59998;SDS011;45859;51.378;6.736;2022-11-04T01:02:44;8.90;;;5.37;;
59998;SDS011;45859;51.378;6.736;2022-11-04T01:05:10;1.40;;;0.87;;
59998;SDS011;45859;51.378;6.736;2022-11-04T01:07:36;5.00;;;3.20;;
59998;SDS011;45859;51.378;6.736;2022-11-04T01:10:02;2.40;;;1.07;;
59998;SDS011;45859;51.378;6.736;2022-11-04T01:12:28;2.17;;;1.70;;
59998;SDS011;45859;51.378;6.736;2022-11-04T01:14:53;2.73;;;1.30;;
59998;SDS011;45859;51.378;6.736;2022-11-04T01:17:19;1.33;;;0.70;;
59998;SDS011;45859;51.378;6.736;2022-11-04T01:19:45;1.73;;;0.70;;
59998;SDS011;45859;51.378;6.736;2022-11-04T01:22:10;3.80;;;1.43;;
59998;SDS011;45859;51.378;6.736;2022-11-04T01:24:36;6.80;;;4.30;;
59998;SDS011;45859;51.378;6.736;2022-11-04T01:27:01;2.90;;;2.03;;
59998;SDS011;45859;51.378;6.736;2022-11-04T01:29:27;6.33;;;4.10;;
59998;SDS011;45859;51.378;6.736;2022-11-04T01:31:56;6.57;;;4.87;;
59998;SDS011;45859;51.378;6.736;2022-11-04T01:34:21;5.43;;;4.40;;
59998;SDS011;45859;51.378;6.736;2022-11-04T01:36:47;5.33;;;4.27;;
59998;SDS011;45859;51.378;6.736;2022-11-04T01:39:12;7.43;;;5.47;;
59998;SDS011;45859;51.378;6.736;2022-11-04T01:41:38;9.03;;;4.57;;
59998;SDS011;45859;51.378;6.736;2022-11-04T01:47:15;4.53;;;1.20;;
59998;SDS011;45859;51.378;6.736;2022-11-04T01:49:44;1.43;;;0.77;;
59998;SDS011;45859;51.378;6.736;2022-11-04T01:52:18;3.77;;;2.07;;
59998;SDS011;45859;51.378;6.736;2022-11-04T01:54:48;2.67;;;1.50;;
59998;SDS011;45859;51.378;6.736;2022-11-04T01:57:22;1.90;;;1.43;;
59998;SDS011;45859;51.378;6.736;2022-11-04T01:59:52;7.73;;;1.60;;
59998;SDS011;45859;51.378;6.736;2022-11-04T02:02:21;3.37;;;1.87;;
59998;SDS011;45859;51.378;6.736;2022-11-04T02:04:46;4.43;;;1.97;;
59998;SDS011;45859;51.378;6.736;2022-11-04T02:07:12;6.33;;;5.43;;
59998;SDS011;45859;51.378;6.736;2022-11-04T02:09:38;6.20;;;5.20;;
59998;SDS011;45859;51.378;6.736;2022-11-04T02:12:05;5.87;;;4.27;;
59998;SDS011;45859;51.378;6.736;2022-11-04T02:14:50;5.60;;;1.97;;
59998;SDS011;45859;51.378;6.736;2022-11-04T02:23:19;2.03;;;0.70;;
59998;SDS011;45859;51.378;6.736;2022-11-04T02:31:35;0.93;;;0.88;;
59998;SDS011;45859;51.378;6.736;2022-11-04T02:42:21;1.50;;;1.40;;
59998;SDS011;45859;51.378;6.736;2022-11-04T02:45:13;2.03;;;1.07;;
59998;SDS011;45859;51.378;6.736;2022-11-04T02:47:38;3.73;;;2.50;;
59998;SDS011;45859;51.378;6.736;2022-11-04T02:55:26;1.57;;;0.93;;
59998;SDS011;45859;51.378;6.736;2022-11-04T02:57:57;2.07;;;1.17;;
59998;SDS011;45859;51.378;6.736;2022-11-04T03:00:26;2.73;;;1.30;;
59998;SDS011;45859;51.378;6.736;2022-11-04T03:02:55;4.20;;;1.07;;
59998;SDS011;45859;51.378;6.736;2022-11-04T03:05:29;3.17;;;0.90;;
59998;SDS011;45859;51.378;6.736;2022-11-04T03:08:03;1.63;;;0.70;;
59998;SDS011;45859;51.378;6.736;2022-11-04T03:10:41;3.93;;;1.20;;
59998;SDS011;45859;51.378;6.736;2022-11-04T03:14:13;4.10;;;2.43;;
59998;SDS011;45859;51.378;6.736;2022-11-04T03:16:28;2.53;;;1.33;;
59998;SDS011;45859;51.378;6.736;2022-11-04T03:21:40;2.37;;;0.60;;
59998;SDS011;45859;51.378;6.736;2022-11-04T03:24:12;2.30;;;0.60;;
59998;SDS011;45859;51.378;6.736;2022-11-04T03:26:46;1.03;;;0.53;;
59998;SDS011;45859;51.378;6.736;2022-11-04T03:29:29;2.60;;;0.73;;
59998;SDS011;45859;51.378;6.736;2022-11-04T03:32:16;1.27;;;0.70;;
59998;SDS011;45859;51.378;6.736;2022-11-04T03:34:49;2.87;;;0.80;;
59998;SDS011;45859;51.378;6.736;2022-11-04T03:37:15;0.33;;;0.33;;
59998;SDS011;45859;51.378;6.736;2022-11-04T03:39:41;1.53;;;0.80;;
59998;SDS011;45859;51.378;6.736;2022-11-04T03:42:07;2.23;;;0.97;;
59998;SDS011;45859;51.378;6.736;2022-11-04T03:44:46;2.37;;;0.70;;
59998;SDS011;45859;51.378;6.736;2022-11-04T03:47:14;18.55;;;0.93;;
59998;SDS011;45859;51.378;6.736;2022-11-04T03:49:40;2.10;;;0.90;;
59998;SDS011;45859;51.378;6.736;2022-11-04T03:52:07;1.00;;;0.40;;
59998;SDS011;45859;51.378;6.736;2022-11-04T03:54:33;3.03;;;1.37;;
59998;SDS011;45859;51.378;6.736;2022-11-04T03:59:39;4.33;;;1.17;;
59998;SDS011;45859;51.378;6.736;2022-11-04T04:02:13;2.80;;;0.50;;
59998;SDS011;45859;51.378;6.736;2022-11-04T04:07:31;1.02;;;0.40;;
59998;SDS011;45859;51.378;6.736;2022-11-04T04:12:59;4.30;;;0.93;;
59998;SDS011;45859;51.378;6.736;2022-11-04T04:15:35;3.23;;;1.10;;
59998;SDS011;45859;51.378;6.736;2022-11-04T04:18:08;3.20;;;0.60;;
59998;SDS011;45859;51.378;6.736;2022-11-04T04:20:39;2.23;;;0.90;;
59998;SDS011;45859;51.378;6.736;2022-11-04T04:23:08;1.80;;;0.70;;
59998;SDS011;45859;51.378;6.736;2022-11-04T04:25:57;2.67;;;0.50;;
59998;SDS011;45859;51.378;6.736;2022-11-04T04:28:45;2.00;;;0.50;;
59998;SDS011;45859;51.378;6.736;2022-11-04T04:31:12;2.00;;;0.50;;
59998;SDS011;45859;51.378;6.736;2022-11-04T04:34:03;2.63;;;0.70;;
59998;SDS011;45859;51.378;6.736;2022-11-04T04:36:30;0.77;;;0.40;;
59998;SDS011;45859;51.378;6.736;2022-11-04T04:39:01;2.70;;;1.33;;
59998;SDS011;45859;51.378;6.736;2022-11-04T04:41:47;0.53;;;0.40;;
59998;SDS011;45859;51.378;6.736;2022-11-04T04:44:42;2.13;;;0.77;;
59998;SDS011;45859;51.378;6.736;2022-11-04T04:47:23;0.87;;;0.40;;
59998;SDS011;45859;51.378;6.736;2022-11-04T04:49:57;1.43;;;0.60;;
59998;SDS011;45859;51.378;6.736;2022-11-04T04:52:28;3.53;;;0.80;;
59998;SDS011;45859;51.378;6.736;2022-11-04T04:55:05;5.03;;;1.33;;
59998;SDS011;45859;51.378;6.736;2022-11-04T04:57:32;6.30;;;0.90;;
59998;SDS011;45859;51.378;6.736;2022-11-04T04:59:57;4.40;;;0.83;;
59998;SDS011;45859;51.378;6.736;2022-11-04T05:02:23;3.63;;;1.30;;
59998;SDS011;45859;51.378;6.736;2022-11-04T05:04:48;4.53;;;0.93;;
59998;SDS011;45859;51.378;6.736;2022-11-04T05:07:14;5.77;;;0.63;;
59998;SDS011;45859;51.378;6.736;2022-11-04T05:09:40;1.37;;;0.50;;
59998;SDS011;45859;51.378;6.736;2022-11-04T05:12:06;1.27;;;0.63;;
59998;SDS011;45859;51.378;6.736;2022-11-04T05:14:33;2.57;;;0.87;;
59998;SDS011;45859;51.378;6.736;2022-11-04T05:16:59;4.23;;;1.23;;
59998;SDS011;45859;51.378;6.736;2022-11-04T05:19:25;4.03;;;1.40;;
59998;SDS011;45859;51.378;6.736;2022-11-04T05:21:51;2.10;;;1.03;;
59998;SDS011;45859;51.378;6.736;2022-11-04T05:24:16;3.33;;;1.30;;
59998;SDS011;45859;51.378;6.736;2022-11-04T05:26:42;4.53;;;0.97;;
59998;SDS011;45859;51.378;6.736;2022-11-04T05:29:08;1.50;;;0.60;;
59998;SDS011;45859;51.378;6.736;2022-11-04T05:31:34;4.40;;;1.17;;
59998;SDS011;45859;51.378;6.736;2022-11-04T05:34:00;5.20;;;1.10;;
59998;SDS011;45859;51.378;6.736;2022-11-04T05:36:26;6.00;;;1.07;;
59998;SDS011;45859;51.378;6.736;2022-11-04T05:38:52;3.50;;;0.87;;
59998;SDS011;45859;51.378;6.736;2022-11-04T05:41:19;7.40;;;1.17;;
59998;SDS011;45859;51.378;6.736;2022-11-04T05:43:52;4.77;;;1.40;;
59998;SDS011;45859;51.378;6.736;2022-11-04T05:46:22;6.40;;;1.50;;
59998;SDS011;45859;51.378;6.736;2022-11-04T05:48:48;5.10;;;1.10;;
59998;SDS011;45859;51.378;6.736;2022-11-04T05:51:14;3.83;;;1.50;;
59998;SDS011;45859;51.378;6.736;2022-11-04T05:53:41;2.27;;;1.33;;
59998;SDS011;45859;51.378;6.736;2022-11-04T05:56:07;2.13;;;1.13;;
59998;SDS011;45859;51.378;6.736;2022-11-04T05:58:33;7.07;;;1.73;;
59998;SDS011;45859;51.378;6.736;2022-11-04T06:03:48;3.00;;;1.33;;
59998;SDS011;45859;51.378;6.736;2022-11-04T06:06:15;6.57;;;1.50;;
59998;SDS011;45859;51.378;6.736;2022-11-04T06:08:40;7.33;;;1.87;;
59998;SDS011;45859;51.378;6.736;2022-11-04T06:11:06;8.03;;;1.80;;
59998;SDS011;45859;51.378;6.736;2022-11-04T06:13:31;4.97;;;1.87;;
59998;SDS011;45859;51.378;6.736;2022-11-04T06:15:57;4.40;;;1.67;;
59998;SDS011;45859;51.378;6.736;2022-11-04T06:18:23;4.73;;;1.60;;
59998;SDS011;45859;51.378;6.736;2022-11-04T06:20:48;5.37;;;1.83;;
59998;SDS011;45859;51.378;6.736;2022-11-04T06:23:14;4.00;;;1.60;;
59998;SDS011;45859;51.378;6.736;2022-11-04T06:25:39;4.33;;;1.67;;
59998;SDS011;45859;51.378;6.736;2022-11-04T06:28:05;12.03;;;2.30;;
59998;SDS011;45859;51.378;6.736;2022-11-04T06:30:31;4.33;;;2.13;;
59998;SDS011;45859;51.378;6.736;2022-11-04T06:32:56;3.13;;;1.80;;
59998;SDS011;45859;51.378;6.736;2022-11-04T06:35:22;3.53;;;1.10;;
59998;SDS011;45859;51.378;6.736;2022-11-04T06:37:48;11.17;;;0.93;;
59998;SDS011;45859;51.378;6.736;2022-11-04T06:40:13;9.07;;;1.33;;
59998;SDS011;45859;51.378;6.736;2022-11-04T06:42:39;4.77;;;1.23;;
59998;SDS011;45859;51.378;6.736;2022-11-04T06:45:06;3.43;;;1.40;;
59998;SDS011;45859;51.378;6.736;2022-11-04T06:47:32;7.17;;;1.83;;
59998;SDS011;45859;51.378;6.736;2022-11-04T06:49:58;3.90;;;1.43;;
59998;SDS011;45859;51.378;6.736;2022-11-04T06:52:23;4.93;;;1.23;;
59998;SDS011;45859;51.378;6.736;2022-11-04T06:54:49;9.00;;;1.10;;
59998;SDS011;45859;51.378;6.736;2022-11-04T06:57:15;2.63;;;1.00;;
59998;SDS011;45859;51.378;6.736;2022-11-04T06:59:40;4.40;;;1.70;;
59998;SDS011;45859;51.378;6.736;2022-11-04T07:02:08;4.37;;;1.23;;
59998;SDS011;45859;51.378;6.736;2022-11-04T07:04:35;4.47;;;1.63;;
59998;SDS011;45859;51.378;6.736;2022-11-04T07:07:01;3.77;;;1.20;;
59998;SDS011;45859;51.378;6.736;2022-11-04T07:09:27;3.90;;;1.27;;
59998;SDS011;45859;51.378;6.736;2022-11-04T07:11:52;4.70;;;1.67;;
59998;SDS011;45859;51.378;6.736;2022-11-04T07:14:18;8.17;;;2.60;;
59998;SDS011;45859;51.378;6.736;2022-11-04T07:16:44;4.23;;;1.90;;
59998;SDS011;45859;51.378;6.736;2022-11-04T07:19:09;6.43;;;1.33;;
59998;SDS011;45859;51.378;6.736;2022-11-04T07:21:35;1.90;;;1.00;;
59998;SDS011;45859;51.378;6.736;2022-11-04T07:24:01;7.10;;;1.73;;
59998;SDS011;45859;51.378;6.736;2022-11-04T07:26:26;6.03;;;1.73;;
59998;SDS011;45859;51.378;6.736;2022-11-04T07:28:52;2.67;;;1.10;;
59998;SDS011;45859;51.378;6.736;2022-11-04T07:31:18;1.43;;;0.97;;
59998;SDS011;45859;51.378;6.736;2022-11-04T07:33:44;6.80;;;1.40;;
59998;SDS011;45859;51.378;6.736;2022-11-04T07:36:13;3.10;;;1.08;;
59998;SDS011;45859;51.378;6.736;2022-11-04T07:38:41;3.47;;;1.43;;
59998;SDS011;45859;51.378;6.736;2022-11-04T07:41:06;3.70;;;1.17;;
59998;SDS011;45859;51.378;6.736;2022-11-04T07:43:32;6.30;;;2.60;;
59998;SDS011;45859;51.378;6.736;2022-11-04T07:46:02;3.53;;;1.10;;
59998;SDS011;45859;51.378;6.736;2022-11-04T07:48:30;4.90;;;0.90;;
59998;SDS011;45859;51.378;6.736;2022-11-04T07:50:56;4.33;;;1.17;;
59998;SDS011;45859;51.378;6.736;2022-11-04T07:53:23;5.07;;;1.20;;
59998;SDS011;45859;51.378;6.736;2022-11-04T07:55:49;4.70;;;1.80;;
59998;SDS011;45859;51.378;6.736;2022-11-04T07:58:16;2.83;;;1.40;;
59998;SDS011;45859;51.378;6.736;2022-11-04T08:00:43;2.23;;;0.97;;
59998;SDS011;45859;51.378;6.736;2022-11-04T08:03:09;5.67;;;2.67;;
59998;SDS011;45859;51.378;6.736;2022-11-04T08:05:34;6.13;;;2.70;;
59998;SDS011;45859;51.378;6.736;2022-11-04T08:08:00;2.23;;;0.90;;
59998;SDS011;45859;51.378;6.736;2022-11-04T08:10:25;5.47;;;1.07;;
59998;SDS011;45859;51.378;6.736;2022-11-04T08:12:52;4.97;;;1.43;;
59998;SDS011;45859;51.378;6.736;2022-11-04T08:15:17;5.90;;;1.17;;
59998;SDS011;45859;51.378;6.736;2022-11-04T08:17:43;1.37;;;0.90;;
59998;SDS011;45859;51.378;6.736;2022-11-04T08:20:08;3.87;;;1.33;;
59998;SDS011;45859;51.378;6.736;2022-11-04T08:22:34;8.60;;;1.20;;
59998;SDS011;45859;51.378;6.736;2022-11-04T08:25:00;4.63;;;1.90;;
59998;SDS011;45859;51.378;6.736;2022-11-04T08:27:25;2.37;;;0.90;;
59998;SDS011;45859;51.378;6.736;2022-11-04T08:29:51;1.83;;;0.60;;
59998;SDS011;45859;51.378;6.736;2022-11-04T08:32:17;3.13;;;0.73;;
59998;SDS011;45859;51.378;6.736;2022-11-04T08:34:43;7.67;;;3.07;;
59998;SDS011;45859;51.378;6.736;2022-11-04T08:37:11;9.97;;;3.60;;
59998;SDS011;45859;51.378;6.736;2022-11-04T08:39:39;5.78;;;1.08;;
59998;SDS011;45859;51.378;6.736;2022-11-04T08:42:04;6.53;;;0.97;;
59998;SDS011;45859;51.378;6.736;2022-11-04T08:44:30;10.17;;;3.40;;
59998;SDS011;45859;51.378;6.736;2022-11-04T08:46:58;7.57;;;3.20;;
59998;SDS011;45859;51.378;6.736;2022-11-04T08:49:24;8.70;;;3.50;;
59998;SDS011;45859;51.378;6.736;2022-11-04T08:51:50;7.33;;;3.13;;
59998;SDS011;45859;51.378;6.736;2022-11-04T08:54:23;6.27;;;3.27;;
59998;SDS011;45859;51.378;6.736;2022-11-04T08:56:50;9.33;;;3.67;;
59998;SDS011;45859;51.378;6.736;2022-11-04T08:59:16;2.53;;;1.10;;
59998;SDS011;45859;51.378;6.736;2022-11-04T09:01:41;7.57;;;3.70;;
59998;SDS011;45859;51.378;6.736;2022-11-04T09:04:09;5.13;;;1.63;;
59998;SDS011;45859;51.378;6.736;2022-11-04T09:06:37;7.73;;;3.50;;
59998;SDS011;45859;51.378;6.736;2022-11-04T09:09:06;1.20;;;0.70;;
59998;SDS011;45859;51.378;6.736;2022-11-04T09:11:35;4.20;;;1.20;;
59998;SDS011;45859;51.378;6.736;2022-11-04T09:14:02;10.37;;;3.93;;
59998;SDS011;45859;51.378;6.736;2022-11-04T09:16:29;10.67;;;3.53;;
59998;SDS011;45859;51.378;6.736;2022-11-04T09:18:56;4.47;;;1.67;;
59998;SDS011;45859;51.378;6.736;2022-11-04T09:21:23;5.63;;;1.23;;
59998;SDS011;45859;51.378;6.736;2022-11-04T09:23:49;7.30;;;1.87;;
59998;SDS011;45859;51.378;6.736;2022-11-04T09:26:15;9.90;;;3.93;;
59998;SDS011;45859;51.378;6.736;2022-11-04T09:28:41;8.27;;;3.73;;
59998;SDS011;45859;51.378;6.736;2022-11-04T09:31:17;4.97;;;2.20;;
59998;SDS011;45859;51.378;6.736;2022-11-04T09:33:43;7.37;;;2.13;;
59998;SDS011;45859;51.378;6.736;2022-11-04T09:36:09;4.47;;;1.80;;
59998;SDS011;45859;51.378;6.736;2022-11-04T09:38:36;2.27;;;1.23;;
59998;SDS011;45859;51.378;6.736;2022-11-04T09:43:50;8.93;;;3.13;;
59998;SDS011;45859;51.378;6.736;2022-11-04T09:46:17;4.03;;;1.70;;
59998;SDS011;45859;51.378;6.736;2022-11-04T09:48:46;7.90;;;1.67;;
59998;SDS011;45859;51.378;6.736;2022-11-04T09:51:15;2.17;;;1.05;;
59998;SDS011;45859;51.378;6.736;2022-11-04T09:54:19;6.87;;;3.10;;
59998;SDS011;45859;51.378;6.736;2022-11-04T09:56:44;7.20;;;2.80;;
59998;SDS011;45859;51.378;6.736;2022-11-04T09:59:16;3.57;;;1.57;;
59998;SDS011;45859;51.378;6.736;2022-11-04T10:01:52;1.43;;;0.97;;
59998;SDS011;45859;51.378;6.736;2022-11-04T10:07:19;2.67;;;1.20;;
59998;SDS011;45859;51.378;6.736;2022-11-04T10:10:03;8.50;;;3.57;;
59998;SDS011;45859;51.378;6.736;2022-11-04T10:20:48;7.60;;;3.07;;
59998;SDS011;45859;51.378;6.736;2022-11-04T10:23:40;8.57;;;2.70;;
59998;SDS011;45859;51.378;6.736;2022-11-04T10:29:03;6.60;;;2.40;;
59998;SDS011;45859;51.378;6.736;2022-11-04T10:31:30;3.87;;;1.47;;
59998;SDS011;45859;51.378;6.736;2022-11-04T10:34:43;3.73;;;1.40;;
59998;SDS011;45859;51.378;6.736;2022-11-04T10:37:12;7.57;;;2.73;;
59998;SDS011;45859;51.378;6.736;2022-11-04T10:39:42;4.60;;;2.20;;
59998;SDS011;45859;51.378;6.736;2022-11-04T10:42:11;6.23;;;2.50;;
59998;SDS011;45859;51.378;6.736;2022-11-04T10:44:40;5.40;;;2.40;;
59998;SDS011;45859;51.378;6.736;2022-11-04T10:52:43;12.47;;;2.83;;
59998;SDS011;45859;51.378;6.736;2022-11-04T10:55:14;9.40;;;2.97;;
59998;SDS011;45859;51.378;6.736;2022-11-04T11:00:32;7.93;;;2.70;;
59998;SDS011;45859;51.378;6.736;2022-11-04T11:03:03;8.57;;;2.80;;
59998;SDS011;45859;51.378;6.736;2022-11-04T11:06:08;8.90;;;2.97;;
59998;SDS011;45859;51.378;6.736;2022-11-04T11:08:37;8.13;;;2.70;;
59998;SDS011;45859;51.378;6.736;2022-11-04T11:11:04;5.00;;;3.00;;
59998;SDS011;45859;51.378;6.736;2022-11-04T11:13:35;6.33;;;2.80;;
59998;SDS011;45859;51.378;6.736;2022-11-04T11:16:04;8.20;;;3.23;;
59998;SDS011;45859;51.378;6.736;2022-11-04T11:18:37;8.20;;;3.57;;
59998;SDS011;45859;51.378;6.736;2022-11-04T11:21:05;8.23;;;3.50;;
59998;SDS011;45859;51.378;6.736;2022-11-04T11:23:43;6.57;;;3.10;;
59998;SDS011;45859;51.378;6.736;2022-11-04T11:26:15;7.57;;;2.70;;
59998;SDS011;45859;51.378;6.736;2022-11-04T11:31:16;9.80;;;2.78;;
59998;SDS011;45859;51.378;6.736;2022-11-04T11:33:49;6.10;;;2.60;;
59998;SDS011;45859;51.378;6.736;2022-11-04T11:36:22;6.68;;;1.38;;
59998;SDS011;45859;51.378;6.736;2022-11-04T11:41:22;6.23;;;2.93;;
59998;SDS011;45859;51.378;6.736;2022-11-04T11:43:55;6.03;;;2.30;;
59998;SDS011;45859;51.378;6.736;2022-11-04T11:46:48;9.33;;;2.60;;
59998;SDS011;45859;51.378;6.736;2022-11-04T11:49:26;6.50;;;2.37;;
59998;SDS011;45859;51.378;6.736;2022-11-04T11:52:44;8.90;;;2.70;;
59998;SDS011;45859;51.378;6.736;2022-11-04T11:54:59;8.30;;;2.70;;
59998;SDS011;45859;51.378;6.736;2022-11-04T12:03:43;2.95;;;1.65;;
59998;SDS011;45859;51.378;6.736;2022-11-04T12:09:05;8.13;;;3.20;;
59998;SDS011;45859;51.378;6.736;2022-11-04T12:12:16;8.00;;;3.60;;
59998;SDS011;45859;51.378;6.736;2022-11-04T12:23:27;9.97;;;3.97;;
59998;SDS011;45859;51.378;6.736;2022-11-04T12:36:38;5.70;;;3.20;;
59998;SDS011;45859;51.378;6.736;2022-11-04T12:39:48;9.33;;;3.83;;
59998;SDS011;45859;51.378;6.736;2022-11-04T12:42:22;9.70;;;3.37;;
59998;SDS011;45859;51.378;6.736;2022-11-04T12:47:49;9.40;;;3.30;;
59998;SDS011;45859;51.378;6.736;2022-11-04T12:56:18;10.57;;;3.53;;
59998;SDS011;45859;51.378;6.736;2022-11-04T12:59:03;8.63;;;3.27;;
59998;SDS011;45859;51.378;6.736;2022-11-04T13:01:44;7.00;;;2.60;;
59998;SDS011;45859;51.378;6.736;2022-11-04T13:04:32;5.97;;;2.90;;
59998;SDS011;45859;51.378;6.736;2022-11-04T13:07:11;9.47;;;3.37;;
59998;SDS011;45859;51.378;6.736;2022-11-04T13:09:52;11.95;;;4.40;;
59998;SDS011;45859;51.378;6.736;2022-11-04T13:12:23;8.17;;;4.20;;
59998;SDS011;45859;51.378;6.736;2022-11-04T13:14:54;6.13;;;3.80;;
59998;SDS011;45859;51.378;6.736;2022-11-04T13:17:37;12.37;;;4.80;;
59998;SDS011;45859;51.378;6.736;2022-11-04T13:22:46;8.33;;;3.60;;
59998;SDS011;45859;51.378;6.736;2022-11-04T13:27:48;8.07;;;2.90;;
59998;SDS011;45859;51.378;6.736;2022-11-04T13:36:45;6.20;;;1.52;;
59998;SDS011;45859;51.378;6.736;2022-11-04T13:39:06;6.80;;;2.40;;
59998;SDS011;45859;51.378;6.736;2022-11-04T13:44:45;10.60;;;2.80;;
59998;SDS011;45859;51.378;6.736;2022-11-04T13:47:21;10.53;;;2.73;;
59998;SDS011;45859;51.378;6.736;2022-11-04T13:49:50;4.30;;;2.60;;
59998;SDS011;45859;51.378;6.736;2022-11-04T13:52:19;10.77;;;3.33;;
59998;SDS011;45859;51.378;6.736;2022-11-04T13:57:17;10.90;;;2.30;;
59998;SDS011;45859;51.378;6.736;2022-11-04T14:00:05;8.77;;;1.77;;
59998;SDS011;45859;51.378;6.736;2022-11-04T14:05:43;8.10;;;3.00;;
59998;SDS011;45859;51.378;6.736;2022-11-04T14:18:27;10.73;;;3.80;;
59998;SDS011;45859;51.378;6.736;2022-11-04T14:21:01;8.73;;;3.20;;
59998;SDS011;45859;51.378;6.736;2022-11-04T14:23:42;9.13;;;3.10;;
59998;SDS011;45859;51.378;6.736;2022-11-04T14:26:14;10.40;;;3.20;;
59998;SDS011;45859;51.378;6.736;2022-11-04T14:28:43;6.13;;;2.53;;
59998;SDS011;45859;51.378;6.736;2022-11-04T14:31:11;10.00;;;2.47;;
59998;SDS011;45859;51.378;6.736;2022-11-04T14:33:49;11.70;;;2.57;;
59998;SDS011;45859;51.378;6.736;2022-11-04T14:39:32;10.63;;;2.87;;
59998;SDS011;45859;51.378;6.736;2022-11-04T14:41:55;8.30;;;2.20;;
59998;SDS011;45859;51.378;6.736;2022-11-04T14:47:12;7.10;;;2.40;;
59998;SDS011;45859;51.378;6.736;2022-11-04T14:52:18;8.03;;;2.40;;
59998;SDS011;45859;51.378;6.736;2022-11-04T14:54:46;8.60;;;3.20;;
59998;SDS011;45859;51.378;6.736;2022-11-04T14:57:17;6.80;;;2.63;;
59998;SDS011;45859;51.378;6.736;2022-11-04T14:59:45;2.80;;;1.67;;
59998;SDS011;45859;51.378;6.736;2022-11-04T15:02:12;10.30;;;3.10;;
59998;SDS011;45859;51.378;6.736;2022-11-04T15:04:57;12.23;;;3.80;;
59998;SDS011;45859;51.378;6.736;2022-11-04T15:07:35;9.47;;;3.57;;
59998;SDS011;45859;51.378;6.736;2022-11-04T15:10:15;7.80;;;3.53;;
59998;SDS011;45859;51.378;6.736;2022-11-04T15:12:50;11.03;;;4.23;;
59998;SDS011;45859;51.378;6.736;2022-11-04T15:17:56;11.13;;;4.53;;
59998;SDS011;45859;51.378;6.736;2022-11-04T15:20:25;10.00;;;4.13;;
59998;SDS011;45859;51.378;6.736;2022-11-04T15:22:54;10.07;;;3.77;;
59998;SDS011;45859;51.378;6.736;2022-11-04T15:25:25;7.47;;;4.20;;
59998;SDS011;45859;51.378;6.736;2022-11-04T15:27:51;9.67;;;4.17;;
59998;SDS011;45859;51.378;6.736;2022-11-04T15:30:19;8.87;;;3.83;;
59998;SDS011;45859;51.378;6.736;2022-11-04T15:35:27;9.80;;;4.83;;
59998;SDS011;45859;51.378;6.736;2022-11-04T15:37:55;10.07;;;4.47;;
59998;SDS011;45859;51.378;6.736;2022-11-04T15:40:23;11.97;;;5.00;;
59998;SDS011;45859;51.378;6.736;2022-11-04T15:42:51;7.70;;;2.70;;
59998;SDS011;45859;51.378;6.736;2022-11-04T15:48:19;11.00;;;4.60;;
59998;SDS011;45859;51.378;6.736;2022-11-04T15:53:28;11.40;;;4.60;;
59998;SDS011;45859;51.378;6.736;2022-11-04T15:55:55;4.97;;;2.80;;
59998;SDS011;45859;51.378;6.736;2022-11-04T15:58:21;8.83;;;4.67;;
59998;SDS011;45859;51.378;6.736;2022-11-04T16:00:51;11.77;;;6.13;;
59998;SDS011;45859;51.378;6.736;2022-11-04T16:03:17;12.60;;;5.53;;
59998;SDS011;45859;51.378;6.736;2022-11-04T16:05:58;10.20;;;5.03;;
59998;SDS011;45859;51.378;6.736;2022-11-04T16:09:01;4.97;;;2.90;;
59998;SDS011;45859;51.378;6.736;2022-11-04T16:11:33;12.03;;;5.97;;
59998;SDS011;45859;51.378;6.736;2022-11-04T16:14:20;10.20;;;5.73;;
59998;SDS011;45859;51.378;6.736;2022-11-04T16:17:08;9.33;;;5.70;;
59998;SDS011;45859;51.378;6.736;2022-11-04T16:19:34;9.27;;;3.57;;
59998;SDS011;45859;51.378;6.736;2022-11-04T16:22:05;13.43;;;6.57;;
59998;SDS011;45859;51.378;6.736;2022-11-04T16:24:34;12.37;;;6.33;;
59998;SDS011;45859;51.378;6.736;2022-11-04T16:27:05;11.07;;;3.83;;
59998;SDS011;45859;51.378;6.736;2022-11-04T16:29:35;11.93;;;7.03;;
59998;SDS011;45859;51.378;6.736;2022-11-04T16:32:22;16.30;;;7.03;;
59998;SDS011;45859;51.378;6.736;2022-11-04T16:34:56;9.10;;;3.35;;
59998;SDS011;45859;51.378;6.736;2022-11-04T16:37:37;10.57;;;6.40;;
59998;SDS011;45859;51.378;6.736;2022-11-04T16:40:03;13.10;;;7.33;;
59998;SDS011;45859;51.378;6.736;2022-11-04T16:42:31;12.07;;;6.70;;
59998;SDS011;45859;51.378;6.736;2022-11-04T16:44:58;14.10;;;6.83;;
59998;SDS011;45859;51.378;6.736;2022-11-04T16:47:26;9.73;;;6.60;;
59998;SDS011;45859;51.378;6.736;2022-11-04T16:49:57;10.80;;;7.17;;
59998;SDS011;45859;51.378;6.736;2022-11-04T16:52:24;11.95;;;6.97;;
59998;SDS011;45859;51.378;6.736;2022-11-04T16:54:50;12.00;;;7.07;;
59998;SDS011;45859;51.378;6.736;2022-11-04T16:57:16;11.40;;;4.40;;
59998;SDS011;45859;51.378;6.736;2022-11-04T16:59:41;13.20;;;7.73;;
59998;SDS011;45859;51.378;6.736;2022-11-04T17:02:29;11.23;;;4.20;;
59998;SDS011;45859;51.378;6.736;2022-11-04T17:05:01;15.23;;;7.80;;
59998;SDS011;45859;51.378;6.736;2022-11-04T17:07:28;14.17;;;8.00;;
59998;SDS011;45859;51.378;6.736;2022-11-04T17:09:54;15.30;;;8.67;;
59998;SDS011;45859;51.378;6.736;2022-11-04T17:12:19;9.77;;;4.40;;
59998;SDS011;45859;51.378;6.736;2022-11-04T17:14:45;14.33;;;8.50;;
59998;SDS011;45859;51.378;6.736;2022-11-04T17:17:11;13.03;;;9.10;;
59998;SDS011;45859;51.378;6.736;2022-11-04T17:19:37;18.30;;;10.23;;
59998;SDS011;45859;51.378;6.736;2022-11-04T17:22:06;9.70;;;4.13;;
59998;SDS011;45859;51.378;6.736;2022-11-04T17:24:33;17.30;;;10.33;;
59998;SDS011;45859;51.378;6.736;2022-11-04T17:26:59;10.07;;;4.60;;
59998;SDS011;45859;51.378;6.736;2022-11-04T17:29:24;15.87;;;5.80;;
59998;SDS011;45859;51.378;6.736;2022-11-04T17:31:50;10.37;;;5.10;;
59998;SDS011;45859;51.378;6.736;2022-11-04T17:34:19;19.63;;;11.53;;
59998;SDS011;45859;51.378;6.736;2022-11-04T17:36:58;16.45;;;6.72;;
59998;SDS011;45859;51.378;6.736;2022-11-04T17:39:24;12.00;;;5.03;;
59998;SDS011;45859;51.378;6.736;2022-11-04T17:41:49;18.13;;;11.93;;
59998;SDS011;45859;51.378;6.736;2022-11-04T17:44:33;18.33;;;11.70;;
59998;SDS011;45859;51.378;6.736;2022-11-04T17:46:59;10.83;;;5.43;;
59998;SDS011;45859;51.378;6.736;2022-11-04T17:49:25;12.20;;;6.27;;